createdAt,value
2018-12-13T00:00:50.759Z,5.00
2018-12-13T00:03:18.264Z,4.77
2018-12-13T00:05:45.831Z,4.10
2018-12-13T00:08:13.398Z,4.80
2018-12-13T00:10:40.954Z,3.93
2018-12-13T00:13:08.931Z,5.00
2018-12-13T00:15:36.992Z,5.00
2018-12-13T00:18:04.486Z,5.70
2018-12-13T00:20:32.157Z,4.53
2018-12-13T00:22:59.732Z,4.77
2018-12-13T00:25:27.322Z,4.50
2018-12-13T00:27:54.813Z,4.10
2018-12-13T00:30:22.371Z,3.70
2018-12-13T00:32:50.746Z,3.57
2018-12-13T00:35:18.234Z,3.40
2018-12-13T00:37:45.745Z,4.33
2018-12-13T00:40:13.285Z,4.20
2018-12-13T00:42:40.793Z,3.07
2018-12-13T00:45:08.387Z,3.70
2018-12-13T00:47:35.913Z,3.60
2018-12-13T00:50:03.876Z,3.73
2018-12-13T00:52:31.400Z,2.97
2018-12-13T00:54:58.977Z,3.23
2018-12-13T00:57:26.554Z,2.77
2018-12-13T00:59:54.070Z,2.70
2018-12-13T01:02:21.592Z,2.73
2018-12-13T01:04:49.099Z,2.77
2018-12-13T01:07:16.590Z,2.77
2018-12-13T01:09:44.168Z,2.57
2018-12-13T01:12:11.683Z,3.10
2018-12-13T01:14:39.230Z,2.77
2018-12-13T01:17:06.752Z,2.83
2018-12-13T01:19:34.226Z,2.33
2018-12-13T01:22:01.720Z,2.60
2018-12-13T01:24:29.201Z,2.90
2018-12-13T01:26:56.705Z,2.40
2018-12-13T01:29:24.202Z,2.83
2018-12-13T01:31:51.707Z,2.53
2018-12-13T01:34:19.253Z,2.13
2018-12-13T01:36:52.251Z,2.60
2018-12-13T01:39:16.327Z,2.37
2018-12-13T01:41:43.807Z,2.43
2018-12-13T01:44:12.552Z,2.40
2018-12-13T01:46:40.061Z,2.27
2018-12-13T01:49:07.569Z,2.30
2018-12-13T01:51:35.069Z,2.17
2018-12-13T01:54:03.121Z,2.20
2018-12-13T01:56:30.643Z,2.30
2018-12-13T01:58:58.139Z,2.20
2018-12-13T02:01:25.680Z,2.70
2018-12-13T02:03:53.275Z,2.53
2018-12-13T02:06:20.801Z,2.77
2018-12-13T02:08:48.399Z,2.13
2018-12-13T02:11:16.120Z,2.40
2018-12-13T02:13:43.681Z,2.20
2018-12-13T02:16:11.223Z,2.03
2018-12-13T02:18:38.793Z,2.37
2018-12-13T02:21:06.280Z,2.97
2018-12-13T02:23:33.887Z,2.17
2018-12-13T02:26:01.478Z,2.43
2018-12-13T02:28:28.962Z,2.50
2018-12-13T02:30:56.528Z,3.13
2018-12-13T02:33:24.061Z,2.63
2018-12-13T02:35:51.665Z,1.97
2018-12-13T02:38:19.170Z,2.70
2018-12-13T02:40:46.720Z,2.63
2018-12-13T02:43:14.975Z,2.72
2018-12-13T02:45:42.488Z,2.90
2018-12-13T02:48:09.981Z,2.80
2018-12-13T02:50:37.509Z,3.20
2018-12-13T02:53:04.977Z,2.70
2018-12-13T02:55:32.550Z,2.90
2018-12-13T02:58:00.059Z,2.90
2018-12-13T03:00:27.604Z,3.20
2018-12-13T03:02:55.153Z,2.67
2018-12-13T03:05:22.652Z,2.70
2018-12-13T03:07:50.151Z,2.20
2018-12-13T03:10:17.746Z,2.77
2018-12-13T03:12:46.320Z,2.80
2018-12-13T03:15:13.844Z,3.27
2018-12-13T03:17:41.469Z,2.97
2018-12-13T03:20:09.046Z,3.47
2018-12-13T03:22:36.599Z,3.00
2018-12-13T03:25:04.769Z,3.10
2018-12-13T03:27:32.342Z,2.97
2018-12-13T03:29:59.936Z,2.70
2018-12-13T03:32:27.439Z,3.00
2018-12-13T03:34:55.085Z,3.00
2018-12-13T03:37:22.660Z,3.10
2018-12-13T03:39:50.794Z,3.53
2018-12-13T03:42:18.309Z,3.20
2018-12-13T03:44:45.815Z,3.03
2018-12-13T03:47:13.366Z,2.57
2018-12-13T03:49:40.894Z,2.57
2018-12-13T03:52:08.456Z,2.80
2018-12-13T03:54:36.005Z,2.83
2018-12-13T03:57:03.552Z,2.60
2018-12-13T03:59:31.094Z,2.33
2018-12-13T04:01:58.632Z,2.73
2018-12-13T04:04:26.213Z,2.20
2018-12-13T04:06:53.704Z,2.23
2018-12-13T04:09:21.546Z,2.57
2018-12-13T04:11:49.052Z,2.40
2018-12-13T04:14:16.585Z,2.13
2018-12-13T04:16:44.122Z,2.27
2018-12-13T04:19:11.723Z,2.90
2018-12-13T04:21:39.288Z,2.93
2018-12-13T04:24:06.836Z,2.87
2018-12-13T04:26:34.348Z,2.90
2018-12-13T04:29:01.890Z,3.10
2018-12-13T04:31:29.467Z,2.90
2018-12-13T04:33:57.000Z,2.83
2018-12-13T04:36:24.626Z,3.23
2018-12-13T04:38:52.151Z,3.20
2018-12-13T04:41:19.969Z,3.02
2018-12-13T04:43:47.493Z,2.87
2018-12-13T04:46:15.106Z,3.37
2018-12-13T04:48:42.631Z,3.17
2018-12-13T04:51:10.146Z,3.23
2018-12-13T04:53:37.669Z,2.80
2018-12-13T04:56:05.260Z,3.10
2018-12-13T04:58:32.760Z,3.10
2018-12-13T05:01:00.241Z,2.53
2018-12-13T05:03:27.747Z,2.70
2018-12-13T05:05:55.364Z,2.63
2018-12-13T05:08:22.930Z,2.90
2018-12-13T05:10:51.697Z,2.70
2018-12-13T05:13:19.340Z,3.47
2018-12-13T05:15:46.913Z,3.10
2018-12-13T05:18:14.438Z,3.10
2018-12-13T05:20:42.000Z,2.73
2018-12-13T05:23:09.488Z,2.70
2018-12-13T05:25:37.047Z,3.22
2018-12-13T05:28:04.586Z,3.13
2018-12-13T05:30:32.188Z,3.10
2018-12-13T05:32:59.733Z,3.20
2018-12-13T05:35:27.233Z,3.77
2018-12-13T05:37:54.742Z,3.03
2018-12-13T05:40:22.283Z,3.83
2018-12-13T05:42:49.870Z,3.70
2018-12-13T05:45:17.570Z,3.30
2018-12-13T05:47:45.085Z,3.77
2018-12-13T05:50:12.734Z,3.70
2018-12-13T05:52:40.676Z,3.70
2018-12-13T05:55:08.626Z,4.97
2018-12-13T05:57:36.353Z,4.47
2018-12-13T06:00:05.834Z,3.87
2018-12-13T06:02:33.447Z,3.73
2018-12-13T06:05:00.962Z,3.87
2018-12-13T06:07:28.611Z,3.93
2018-12-13T06:09:56.734Z,4.30
2018-12-13T06:12:24.316Z,4.60
2018-12-13T06:14:51.879Z,4.97
2018-12-13T06:17:19.418Z,4.60
2018-12-13T06:19:47.027Z,4.57
2018-12-13T06:22:14.565Z,4.50
2018-12-13T06:24:42.120Z,4.40
2018-12-13T06:27:09.665Z,4.97
2018-12-13T06:29:41.849Z,4.40
2018-12-13T06:32:06.737Z,5.03
2018-12-13T06:34:35.595Z,4.57
2018-12-13T06:37:03.145Z,4.57
2018-12-13T06:39:30.640Z,5.73
2018-12-13T06:41:58.169Z,6.57
2018-12-13T06:44:26.199Z,5.90
2018-12-13T06:46:53.761Z,5.93
2018-12-13T06:49:21.412Z,5.40
2018-12-13T06:51:50.906Z,5.77
2018-12-13T06:54:18.426Z,6.40
2018-12-13T06:56:45.985Z,4.97
2018-12-13T06:59:13.477Z,5.33
2018-12-13T07:01:40.989Z,4.83
2018-12-13T07:04:08.515Z,5.63
2018-12-13T07:06:36.061Z,5.63
2018-12-13T07:09:05.773Z,5.50
2018-12-13T07:11:33.273Z,5.50
2018-12-13T07:14:00.767Z,5.53
2018-12-13T07:16:28.283Z,4.87
2018-12-13T07:18:55.816Z,4.90
2018-12-13T07:21:23.325Z,4.50
2018-12-13T07:23:50.823Z,4.43
2018-12-13T07:26:18.311Z,5.07
2018-12-13T07:28:46.062Z,4.90
2018-12-13T07:31:13.629Z,4.80
2018-12-13T07:33:41.265Z,5.33
2018-12-13T07:36:08.849Z,5.60
2018-12-13T07:38:36.415Z,4.97
2018-12-13T07:41:03.988Z,5.37
2018-12-13T07:43:31.542Z,5.53
2018-12-13T07:45:59.060Z,5.27
2018-12-13T07:48:26.578Z,5.63
2018-12-13T07:50:54.120Z,5.92
2018-12-13T07:53:21.633Z,5.30
2018-12-13T07:55:49.113Z,5.27
2018-12-13T07:58:16.689Z,6.30
2018-12-13T08:00:44.199Z,5.30
2018-12-13T08:03:11.715Z,5.93
2018-12-13T08:05:39.219Z,5.67
2018-12-13T08:08:07.111Z,5.67
2018-12-13T08:10:34.632Z,6.57
2018-12-13T08:13:02.145Z,5.77
2018-12-13T08:15:29.636Z,5.40
2018-12-13T08:17:57.207Z,6.03
2018-12-13T08:20:24.748Z,5.70
2018-12-13T08:22:52.388Z,6.00
2018-12-13T08:25:19.887Z,5.87
2018-12-13T08:27:47.414Z,5.73
2018-12-13T08:30:14.981Z,6.40
2018-12-13T08:32:42.540Z,6.80
2018-12-13T08:35:10.037Z,6.50
2018-12-13T08:37:37.565Z,5.53
2018-12-13T08:40:05.721Z,5.13
2018-12-13T08:42:33.274Z,6.30
2018-12-13T08:45:00.881Z,5.27
2018-12-13T08:47:28.369Z,6.03
2018-12-13T08:49:55.895Z,6.23
2018-12-13T08:52:23.395Z,5.63
2018-12-13T08:54:50.983Z,5.90
2018-12-13T08:57:18.530Z,6.00
2018-12-13T08:59:46.032Z,6.00
2018-12-13T09:02:13.607Z,6.40
2018-12-13T09:04:41.275Z,5.60
2018-12-13T09:07:08.788Z,5.80
2018-12-13T09:09:36.277Z,5.97
2018-12-13T09:12:05.899Z,5.67
2018-12-13T09:14:33.461Z,5.70
2018-12-13T09:17:00.969Z,5.97
2018-12-13T09:19:28.523Z,5.63
2018-12-13T09:21:56.043Z,5.47
2018-12-13T09:24:23.527Z,5.93
2018-12-13T09:26:51.131Z,5.47
2018-12-13T09:29:18.638Z,5.53
2018-12-13T09:31:46.167Z,5.47
2018-12-13T09:34:13.713Z,5.30
2018-12-13T09:36:41.217Z,5.23
2018-12-13T09:39:08.846Z,5.20
2018-12-13T09:41:36.365Z,5.23
2018-12-13T09:44:03.947Z,5.60
2018-12-13T09:46:31.448Z,4.97
2018-12-13T09:48:59.033Z,4.63
2018-12-13T09:51:26.513Z,5.10
2018-12-13T09:53:54.031Z,5.10
2018-12-13T09:56:21.555Z,5.07
2018-12-13T09:58:49.078Z,5.13
2018-12-13T10:01:16.598Z,4.40
2018-12-13T10:03:44.122Z,4.50
2018-12-13T10:06:11.639Z,4.93
2018-12-13T10:08:39.139Z,4.70
2018-12-13T10:11:07.253Z,4.12
2018-12-13T10:13:34.838Z,4.60
2018-12-13T10:16:02.402Z,4.80
2018-12-13T10:18:29.931Z,4.70
2018-12-13T10:20:57.415Z,4.87
2018-12-13T10:23:25.009Z,4.60
2018-12-13T10:25:52.497Z,4.37
2018-12-13T10:28:20.007Z,4.50
2018-12-13T10:30:47.492Z,5.03
2018-12-13T10:33:15.051Z,4.37
2018-12-13T10:35:42.764Z,4.47
2018-12-13T10:38:11.035Z,4.83
2018-12-13T10:40:38.547Z,4.40
2018-12-13T10:43:06.028Z,4.97
2018-12-13T10:45:33.539Z,4.87
2018-12-13T10:48:01.103Z,4.77
2018-12-13T10:50:28.678Z,4.17
2018-12-13T10:52:56.230Z,4.50
2018-12-13T10:55:23.734Z,4.33
2018-12-13T10:57:51.248Z,4.00
2018-12-13T11:00:24.408Z,4.53
2018-12-13T11:03:05.735Z,4.30
2018-12-13T11:05:33.256Z,3.67
2018-12-13T11:08:00.808Z,3.67
2018-12-13T11:10:28.381Z,4.43
2018-12-13T11:12:55.863Z,3.80
2018-12-13T11:15:23.370Z,3.97
2018-12-13T11:17:50.926Z,4.03
2018-12-13T11:20:18.448Z,3.77
2018-12-13T11:22:46.022Z,3.77
2018-12-13T11:25:13.544Z,3.60
2018-12-13T11:30:51.290Z,3.80
2018-12-13T11:33:18.846Z,4.70
2018-12-13T11:35:46.383Z,4.40
2018-12-13T11:38:13.898Z,4.70
2018-12-13T11:40:41.616Z,4.50
2018-12-13T11:43:09.494Z,4.67
2018-12-13T11:45:37.058Z,4.40
2018-12-13T11:48:04.583Z,4.27
2018-12-13T11:50:32.188Z,5.03
2018-12-13T11:52:59.780Z,5.40
2018-12-13T11:55:33.475Z,5.00
2018-12-13T11:58:01.796Z,4.30
2018-12-13T12:00:29.351Z,4.23
2018-12-13T12:02:56.922Z,4.20
2018-12-13T12:05:24.468Z,4.53
2018-12-13T12:07:51.951Z,4.50
2018-12-13T12:10:19.538Z,4.33
2018-12-13T12:12:47.096Z,4.23
2018-12-13T12:15:14.632Z,4.57
2018-12-13T12:17:42.618Z,3.90
2018-12-13T12:20:10.127Z,4.30
2018-12-13T12:22:37.623Z,3.67
2018-12-13T12:25:06.294Z,3.47
2018-12-13T12:27:33.836Z,3.10
2018-12-13T12:30:01.378Z,3.83
2018-12-13T12:32:28.888Z,3.80
2018-12-13T12:34:56.448Z,3.30
2018-12-13T12:37:23.969Z,3.37
2018-12-13T12:39:51.478Z,3.97
2018-12-13T12:42:19.071Z,3.40
2018-12-13T12:44:46.707Z,3.70
2018-12-13T12:47:14.194Z,3.60
2018-12-13T12:49:41.848Z,4.00
2018-12-13T12:52:09.351Z,3.50
2018-12-13T12:54:36.859Z,3.90
2018-12-13T12:57:04.460Z,3.60
2018-12-13T12:59:32.121Z,3.73
2018-12-13T13:01:59.643Z,4.03
2018-12-13T13:04:27.198Z,3.67
2018-12-13T13:06:54.710Z,3.37
2018-12-13T13:09:24.958Z,3.80
2018-12-13T13:11:51.817Z,3.17
2018-12-13T13:14:19.335Z,3.60
2018-12-13T13:16:46.962Z,3.93
2018-12-13T13:19:15.286Z,3.47
2018-12-13T13:21:42.790Z,3.63
2018-12-13T13:24:10.271Z,3.50
2018-12-13T13:26:37.810Z,3.57
2018-12-13T13:29:05.370Z,3.57
2018-12-13T13:31:32.886Z,3.77
2018-12-13T13:34:00.417Z,3.40
2018-12-13T13:36:27.909Z,3.40
2018-12-13T13:38:55.451Z,3.50
2018-12-13T13:41:22.987Z,3.50
2018-12-13T13:43:50.542Z,3.73
2018-12-13T13:46:18.225Z,3.00
2018-12-13T13:48:46.547Z,3.20
2018-12-13T13:51:14.057Z,3.20
2018-12-13T13:53:41.585Z,4.03
2018-12-13T13:56:09.187Z,3.90
2018-12-13T13:58:36.863Z,3.90
2018-12-13T14:01:04.443Z,3.87
2018-12-13T14:03:31.951Z,3.50
2018-12-13T14:05:59.575Z,3.50
2018-12-13T14:08:27.063Z,3.23
2018-12-13T14:10:54.711Z,4.03
2018-12-13T14:13:22.241Z,3.43
2018-12-13T14:15:49.778Z,3.90
2018-12-13T14:18:18.035Z,3.53
2018-12-13T14:20:45.519Z,3.90
2018-12-13T14:23:13.041Z,3.97
2018-12-13T14:25:40.741Z,3.93
2018-12-13T14:28:08.322Z,3.60
2018-12-13T14:30:35.896Z,3.87
2018-12-13T14:33:03.499Z,3.93
2018-12-13T14:35:31.279Z,4.10
2018-12-13T14:37:58.793Z,3.83
2018-12-13T14:40:26.321Z,3.73
2018-12-13T14:42:53.937Z,3.77
2018-12-13T14:45:21.453Z,4.17
2018-12-13T14:47:49.125Z,4.43
2018-12-13T14:50:16.644Z,3.80
2018-12-13T14:52:44.136Z,3.57
2018-12-13T14:55:11.708Z,4.10
2018-12-13T14:57:39.247Z,5.87
2018-12-13T15:00:08.014Z,3.90
2018-12-13T15:02:35.559Z,4.10
2018-12-13T15:05:03.181Z,3.83
2018-12-13T15:07:30.705Z,4.03
2018-12-13T15:09:58.247Z,4.57
2018-12-13T15:12:25.775Z,4.23
2018-12-13T15:14:53.358Z,4.53
2018-12-13T15:17:20.933Z,4.70
2018-12-13T15:19:48.451Z,4.50
2018-12-13T15:22:16.065Z,4.93
2018-12-13T15:24:43.625Z,5.30
2018-12-13T15:27:11.175Z,5.53
2018-12-13T15:29:38.661Z,5.50
2018-12-13T15:32:06.271Z,4.93
2018-12-13T15:34:33.774Z,5.37
2018-12-13T15:37:01.278Z,5.93
2018-12-13T15:39:28.834Z,5.30
2018-12-13T15:41:56.402Z,5.53
2018-12-13T15:44:23.950Z,5.23
2018-12-13T15:46:51.663Z,4.53
2018-12-13T15:49:19.173Z,4.97
2018-12-13T15:51:46.696Z,5.30
2018-12-13T15:54:14.339Z,5.10
2018-12-13T15:56:41.899Z,4.67
2018-12-13T15:59:09.423Z,4.90
2018-12-13T16:01:37.045Z,5.90
2018-12-13T16:04:04.591Z,4.93
2018-12-13T16:06:32.110Z,5.33
2018-12-13T16:08:59.726Z,5.77
2018-12-13T16:11:27.319Z,7.00
2018-12-13T16:13:54.842Z,6.03
2018-12-13T16:16:22.954Z,6.53
2018-12-13T16:18:50.515Z,6.60
2018-12-13T16:21:18.010Z,6.90
2018-12-13T16:23:45.572Z,6.83
2018-12-13T16:26:13.111Z,6.73
2018-12-13T16:28:40.705Z,7.70
2018-12-13T16:31:08.245Z,7.13
2018-12-13T16:33:35.757Z,6.97
2018-12-13T16:36:03.336Z,7.47
2018-12-13T16:38:30.924Z,7.67
2018-12-13T16:40:58.484Z,7.07
2018-12-13T16:43:26.954Z,8.10
2018-12-13T16:45:54.533Z,7.00
2018-12-13T16:48:22.034Z,8.13
2018-12-13T16:50:49.540Z,7.60
2018-12-13T16:53:17.127Z,8.30
2018-12-13T16:55:44.650Z,8.23
2018-12-13T16:58:12.212Z,8.47
2018-12-13T17:00:39.827Z,8.23
2018-12-13T17:03:19.526Z,8.30
2018-12-13T17:05:47.190Z,8.63
2018-12-13T17:08:14.715Z,8.10
2018-12-13T17:10:42.417Z,7.60
2018-12-13T17:13:09.990Z,8.27
2018-12-13T17:15:37.517Z,9.03
2018-12-13T17:18:05.392Z,8.43
2018-12-13T17:20:32.945Z,8.47
2018-12-13T17:23:00.451Z,8.23
2018-12-13T17:25:28.056Z,8.37
2018-12-13T17:27:56.696Z,9.00
2018-12-13T17:30:24.254Z,7.93
2018-12-13T17:32:52.067Z,8.03
2018-12-13T17:35:19.593Z,8.00
2018-12-13T17:37:47.105Z,7.60
2018-12-13T17:40:14.663Z,8.50
2018-12-13T17:42:42.191Z,7.83
2018-12-13T17:45:09.760Z,8.10
2018-12-13T17:47:37.347Z,7.80
2018-12-13T17:50:06.235Z,7.87
2018-12-13T17:52:34.530Z,7.70
2018-12-13T17:55:02.188Z,7.97
2018-12-13T17:57:29.710Z,7.80
2018-12-13T17:59:57.259Z,7.23
2018-12-13T18:02:24.834Z,6.77
2018-12-13T18:04:53.309Z,7.07
2018-12-13T18:07:21.546Z,7.43
2018-12-13T18:09:50.026Z,7.20
2018-12-13T18:12:17.579Z,7.17
2018-12-13T18:14:45.098Z,7.33
2018-12-13T18:17:12.642Z,6.70
2018-12-13T18:19:40.171Z,6.90
2018-12-13T18:22:07.746Z,7.50
2018-12-13T18:24:35.323Z,6.40
2018-12-13T18:27:02.903Z,6.93
2018-12-13T18:29:32.589Z,7.33
2018-12-13T18:32:00.126Z,7.60
2018-12-13T18:34:27.643Z,7.93
2018-12-13T18:36:55.909Z,8.00
2018-12-13T18:39:23.435Z,7.13
2018-12-13T18:41:52.173Z,7.60
2018-12-13T18:44:19.764Z,7.60
2018-12-13T18:46:47.439Z,7.27
2018-12-13T18:49:15.523Z,6.57
2018-12-13T18:51:43.247Z,7.00
2018-12-13T18:54:11.807Z,6.50
2018-12-13T18:56:39.889Z,7.00
2018-12-13T18:59:08.444Z,6.40
2018-12-13T19:01:36.021Z,6.50
2018-12-13T19:04:03.617Z,6.95
2018-12-13T19:06:31.272Z,6.60
2018-12-13T19:08:58.936Z,6.63
2018-12-13T19:11:26.563Z,6.10
2018-12-13T19:13:54.115Z,6.63
2018-12-13T19:16:22.997Z,6.60
2018-12-13T19:18:50.925Z,6.00
2018-12-13T19:21:19.252Z,6.93
2018-12-13T19:23:46.895Z,8.17
2018-12-13T19:26:14.978Z,8.47
2018-12-13T19:28:42.870Z,8.20
2018-12-13T19:31:10.435Z,9.87
2018-12-13T19:33:37.963Z,11.67
2018-12-13T19:36:05.514Z,9.03
2018-12-13T19:38:33.072Z,8.37
2018-12-13T19:41:01.183Z,7.07
2018-12-13T19:43:29.466Z,6.70
2018-12-13T19:45:57.017Z,6.30
2018-12-13T19:48:24.946Z,5.90
2018-12-13T19:50:54.986Z,6.20
2018-12-13T19:53:22.666Z,5.77
2018-12-13T19:55:50.194Z,5.37
2018-12-13T19:58:17.741Z,5.53
2018-12-13T20:00:45.274Z,5.10
2018-12-13T20:03:12.835Z,5.10
2018-12-13T20:05:41.409Z,5.07
2018-12-13T20:08:08.941Z,5.30
2018-12-13T20:10:36.731Z,5.90
2018-12-13T20:13:04.314Z,6.20
2018-12-13T20:15:31.833Z,6.23
2018-12-13T20:18:00.299Z,5.77
2018-12-13T20:20:27.824Z,5.83
2018-12-13T20:22:56.611Z,5.40
2018-12-13T20:25:24.139Z,5.47
2018-12-13T20:27:54.598Z,5.40
2018-12-13T20:30:22.853Z,5.37
2018-12-13T20:32:50.387Z,5.43
2018-12-13T20:35:18.194Z,5.30
2018-12-13T20:37:46.615Z,4.97
2018-12-13T20:40:15.287Z,5.60
2018-12-13T20:42:42.835Z,5.40
2018-12-13T20:45:10.383Z,4.93
2018-12-13T20:47:38.475Z,4.83
2018-12-13T20:50:06.324Z,5.00
2018-12-13T20:52:34.121Z,4.80
2018-12-13T20:55:01.694Z,4.43
2018-12-13T20:57:29.253Z,4.80
2018-12-13T20:59:57.860Z,4.50
2018-12-13T21:02:25.957Z,4.40
2018-12-13T21:04:53.758Z,4.47
2018-12-13T21:07:27.077Z,4.93
2018-12-13T21:09:54.656Z,4.30
2018-12-13T21:12:22.215Z,5.40
2018-12-13T21:14:49.833Z,4.03
2018-12-13T21:17:17.436Z,4.30
2018-12-13T21:19:45.022Z,4.40
2018-12-13T21:22:12.549Z,3.83
2018-12-13T21:24:40.273Z,4.33
2018-12-13T21:27:07.811Z,4.67
2018-12-13T21:29:35.699Z,4.97
2018-12-13T21:32:03.264Z,4.47
2018-12-13T21:34:30.802Z,4.53
2018-12-13T21:36:58.342Z,3.93
2018-12-13T21:39:25.853Z,3.83
2018-12-13T21:41:53.391Z,4.20
2018-12-13T21:44:20.902Z,4.00
2018-12-13T21:46:48.446Z,3.73
2018-12-13T21:49:16.568Z,3.57
2018-12-13T21:51:44.131Z,3.90
2018-12-13T21:54:11.712Z,3.87
2018-12-13T21:56:39.355Z,3.93
2018-12-13T21:59:07.384Z,4.10
2018-12-13T22:01:35.021Z,4.07
2018-12-13T22:04:02.554Z,3.60
2018-12-13T22:06:30.082Z,4.00
2018-12-13T22:08:57.730Z,3.60
2018-12-13T22:11:25.400Z,4.00
2018-12-13T22:13:53.331Z,3.73
2018-12-13T22:16:20.912Z,4.13
2018-12-13T22:18:48.442Z,3.23
2018-12-13T22:21:15.984Z,3.70
2018-12-13T22:23:43.554Z,3.93
2018-12-13T22:26:11.420Z,3.50
2018-12-13T22:28:38.964Z,3.00
2018-12-13T22:31:06.532Z,3.30
2018-12-13T22:33:34.148Z,3.50
2018-12-13T22:36:01.683Z,3.17
2018-12-13T22:38:29.351Z,3.30
2018-12-13T22:40:57.021Z,3.53
2018-12-13T22:43:24.535Z,3.60
2018-12-13T22:45:52.070Z,3.40
2018-12-13T22:48:19.572Z,3.10
2018-12-13T22:50:47.090Z,3.30
2018-12-13T22:53:14.732Z,3.40
2018-12-13T22:55:42.358Z,3.43
2018-12-13T22:58:09.936Z,3.40
2018-12-13T23:00:37.783Z,2.63
2018-12-13T23:03:05.468Z,3.00
2018-12-13T23:05:33.538Z,2.80
2018-12-13T23:08:01.054Z,2.53
2018-12-13T23:10:28.609Z,2.93
2018-12-13T23:12:56.194Z,3.00
2018-12-13T23:15:23.698Z,3.10
2018-12-13T23:17:51.241Z,3.07
2018-12-13T23:20:18.815Z,3.03
2018-12-13T23:22:46.436Z,3.10
2018-12-13T23:25:14.558Z,3.07
2018-12-13T23:27:42.091Z,2.97
2018-12-13T23:30:09.626Z,3.07
2018-12-13T23:32:37.111Z,2.93
2018-12-13T23:35:05.186Z,2.90
2018-12-13T23:37:32.715Z,3.00
2018-12-13T23:40:00.325Z,3.10
2018-12-13T23:42:27.897Z,3.20
2018-12-13T23:44:55.443Z,3.20
2018-12-13T23:47:23.725Z,3.30
2018-12-13T23:49:51.254Z,3.23
2018-12-13T23:52:18.747Z,3.63
2018-12-13T23:54:46.413Z,3.67
2018-12-13T23:57:13.907Z,3.50
2018-12-13T23:59:41.469Z,4.13
